Etusivu
METAR-TAF:

METAR-TAF

Lentoasemat :

Jordan Airport

Jordan, Montana, Yhdysvallat

Leveyspiiri: 47-19-33N, Pituuspiiri: 106-56-51W, korkeus merenpinnasta: 811 m

Tämänhetkinen sää

Tämä raportti tehtiin 18 minuuttia sitten, kello 04.48 UTC
Tuuli 6 kn lännestä/luoteesta
Lämpötila 2°C
Kosteus 87%
Ilmanpaine 1011 hPa

METAR: KJDN 130448Z AUTO 29006KT 02/00 A2985 RMK AO1 SLP132 T00220000

Aika: 22:06 (05:06 UTC)


TAF: puuttuu

Säähavainnot ja -ennusteet yli 4000 lentoasemalta (METAR- ja TAF-raportit).

Käytössä olevat sääasemat on merkitty karttaan keltaisilla ja punaisilla pisteillä.

Aseta hiiri pisteen päälle nähdäksesi sääaseman nimen.

Klikkaa sitten nähdäksesi säähavainnot ja -ennusteet.

Kartan vaihtaminen: klikkaa mustalla rastilla varustettuja vihreitä pisteitä, niin voit zoomata sisään; viivalla varustettua vihreää pistettä, niin voit zoomata ulos tai vihreitä nuolia, niin pääset viereisille kartoille.


METAR-TAF: